Amboy, Washington
Current Conditions -  °F | °C
As of 11:53 PM on Thursday 18 Dec 2014 (Local Time) from KSPB Reporting Station
Light Rain Light Rain  
Wind Chill: 41°   Ceiling: 5500
Heat Index: 45°   Visibility: 8mi
Dew Point: 44°   Wind: 7mph
Humidity: 97%   Direction: 130°SE
Pressure: 29.83"   Gusts: NA
Location:  45.91°N, 122.45°W
Report Text: KSPB 190753Z AUTO 13006KT 8SM -RA OVC055 07/07 A2983 RMK AO2 SLP102 P0003 T00720067 400890061
Loading
Personal Weather Stations






























Interactive Weather Map New forecast layout! Learn more

10-Day Weather Forecast

Advertisements
Track Severe Weather on mobile